createdAt,value
2023-04-08T00:00:31.642Z,14.40
2023-04-08T00:01:04.492Z,14.88
2023-04-08T00:01:36.409Z,16.17
2023-04-08T00:02:08.672Z,16.42
2023-04-08T00:02:42.881Z,17.58
2023-04-08T00:03:15.077Z,14.77
2023-04-08T00:03:47.157Z,15.27
2023-04-08T00:04:20.843Z,16.50
2023-04-08T00:04:52.781Z,18.05
2023-04-08T00:05:26.177Z,16.85
2023-04-08T00:06:00.683Z,15.63
2023-04-08T00:06:32.660Z,15.25
2023-04-08T00:07:04.460Z,18.67
2023-04-08T00:07:37.798Z,18.73
2023-04-08T00:08:09.686Z,16.98
2023-04-08T00:08:41.620Z,18.33
2023-04-08T00:09:14.401Z,19.55
2023-04-08T00:09:46.228Z,17.58
2023-04-08T00:10:19.966Z,17.88
2023-04-08T00:10:52.758Z,18.45
2023-04-08T00:11:24.554Z,19.15
2023-04-08T00:11:57.108Z,18.15
2023-04-08T00:12:30.463Z,18.35
2023-04-08T00:13:02.360Z,19.63
2023-04-08T00:13:35.212Z,19.52
2023-04-08T00:14:07.005Z,19.33
2023-04-08T00:14:40.829Z,19.80
2023-04-08T00:15:13.643Z,18.85
2023-04-08T00:15:45.690Z,19.33
2023-04-08T00:16:17.593Z,20.80
2023-04-08T00:16:50.452Z,20.23
2023-04-08T00:17:22.348Z,18.30
2023-04-08T00:17:54.568Z,20.58
2023-04-08T00:18:28.035Z,19.92
2023-04-08T00:18:59.862Z,18.63
2023-04-08T00:19:31.692Z,18.02
2023-04-08T00:20:05.665Z,19.35
2023-04-08T00:20:38.892Z,18.58
2023-04-08T00:21:10.840Z,18.60
2023-04-08T00:21:43.780Z,15.48
2023-04-08T00:22:15.696Z,16.35
2023-04-08T00:22:47.767Z,17.70
2023-04-08T00:23:21.522Z,16.73
2023-04-08T00:23:53.424Z,16.70
2023-04-08T00:24:25.310Z,15.35
2023-04-08T00:24:58.923Z,15.75
2023-04-08T00:25:31.620Z,15.43
2023-04-08T00:26:03.462Z,14.98
2023-04-08T00:26:36.200Z,14.65
2023-04-08T00:27:07.977Z,15.43
2023-04-08T00:27:39.804Z,14.15
2023-04-08T00:28:12.545Z,15.10
2023-04-08T00:28:45.023Z,15.43
2023-04-08T00:29:16.930Z,13.18
2023-04-08T00:29:49.701Z,14.60
2023-04-08T00:30:21.620Z,14.68
2023-04-08T00:30:53.622Z,15.88
2023-04-08T00:31:27.168Z,13.10
2023-04-08T00:31:59.328Z,13.43
2023-04-08T00:32:31.335Z,14.93
2023-04-08T00:33:04.435Z,13.50
2023-04-08T00:33:36.657Z,12.77
2023-04-08T00:34:08.601Z,11.60
2023-04-08T00:34:41.375Z,12.30
2023-04-08T00:35:13.810Z,12.60
2023-04-08T00:35:48.065Z,11.05
2023-04-08T00:36:19.970Z,11.50
2023-04-08T00:36:51.849Z,11.65
2023-04-08T00:37:24.983Z,12.13
2023-04-08T00:37:56.852Z,11.05
2023-04-08T00:38:28.679Z,9.40
2023-04-08T00:39:01.812Z,11.05
2023-04-08T00:39:33.680Z,10.40
2023-04-08T00:40:06.480Z,10.38
2023-04-08T00:40:39.356Z,10.15
2023-04-08T00:41:11.243Z,9.85
2023-04-08T00:41:43.157Z,10.77
2023-04-08T00:42:16.272Z,9.75
2023-04-08T00:42:48.099Z,9.20
2023-04-08T00:43:20.788Z,10.10
2023-04-08T00:43:53.707Z,10.43
2023-04-08T00:44:25.718Z,10.48
2023-04-08T00:44:57.602Z,10.38
2023-04-08T00:45:30.425Z,9.57
2023-04-08T00:46:02.410Z,9.82
2023-04-08T00:46:39.239Z,9.52
2023-04-08T00:47:13.601Z,10.98
2023-04-08T00:47:46.767Z,8.50
2023-04-08T00:48:18.663Z,9.50
2023-04-08T00:48:52.037Z,9.88
2023-04-08T00:49:24.189Z,9.18
2023-04-08T00:49:56.303Z,9.48
2023-04-08T00:50:29.107Z,7.80
2023-04-08T00:51:02.777Z,9.30
2023-04-08T00:51:36.312Z,9.13
2023-04-08T00:52:09.093Z,8.23
2023-04-08T00:52:40.917Z,8.18
2023-04-08T00:53:13.618Z,8.70
2023-04-08T00:53:46.505Z,9.02
2023-04-08T00:54:18.720Z,8.07
2023-04-08T00:54:50.764Z,7.97
2023-04-08T00:55:23.865Z,8.90
2023-04-08T00:55:55.708Z,8.18
2023-04-08T00:56:27.729Z,8.02
2023-04-08T00:57:01.075Z,8.20
2023-04-08T00:57:33.416Z,9.30
2023-04-08T00:58:05.254Z,8.20
2023-04-08T00:58:38.146Z,7.30
2023-04-08T00:59:10.109Z,7.20
2023-04-08T00:59:43.044Z,7.78
2023-04-08T01:00:17.016Z,8.25
2023-04-08T01:00:54.888Z,8.80
2023-04-08T01:01:41.393Z,8.70
2023-04-08T01:02:19.626Z,7.85
2023-04-08T01:03:03.372Z,9.70
2023-04-08T01:03:56.324Z,8.32
2023-04-08T01:04:33.578Z,8.35
2023-04-08T01:05:10.177Z,8.30
2023-04-08T01:05:51.825Z,7.60
2023-04-08T01:06:42.283Z,8.52
2023-04-08T01:07:18.522Z,8.00
2023-04-08T01:07:50.956Z,7.43
2023-04-08T01:08:27.414Z,8.25
2023-04-08T01:09:01.014Z,7.20
2023-04-08T01:09:36.076Z,8.70
2023-04-08T01:10:16.376Z,8.38
2023-04-08T01:10:51.469Z,8.18
2023-04-08T01:11:23.665Z,8.30
2023-04-08T01:11:58.551Z,7.68
2023-04-08T01:12:32.959Z,7.80
2023-04-08T01:13:08.411Z,8.43
2023-04-08T01:13:43.417Z,7.72
2023-04-08T01:14:20.890Z,7.15
2023-04-08T01:14:55.699Z,7.22
2023-04-08T01:15:29.863Z,7.85
2023-04-08T01:16:02.120Z,7.45
2023-04-08T01:16:35.025Z,7.82
2023-04-08T01:17:08.750Z,8.68
2023-04-08T01:17:41.930Z,8.23
2023-04-08T01:18:15.811Z,7.40
2023-04-08T01:18:51.641Z,8.32
2023-04-08T01:19:29.387Z,8.65
2023-04-08T01:20:04.239Z,7.60
2023-04-08T01:20:37.375Z,7.63
2023-04-08T01:21:09.840Z,7.78
2023-04-08T01:21:43.599Z,7.70
2023-04-08T01:22:26.739Z,6.88
2023-04-08T01:23:08.872Z,7.93
2023-04-08T01:23:47.456Z,8.32
2023-04-08T01:24:26.117Z,7.03
2023-04-08T01:25:02.713Z,8.43
2023-04-08T01:25:37.098Z,7.53
2023-04-08T01:26:11.247Z,7.95
2023-04-08T01:26:44.326Z,7.10
2023-04-08T01:27:17.153Z,8.55
2023-04-08T01:27:50.906Z,7.40
2023-04-08T01:28:26.998Z,7.65
2023-04-08T01:29:02.973Z,7.65
2023-04-08T01:29:36.229Z,7.85
2023-04-08T01:30:09.478Z,8.25
2023-04-08T01:30:43.648Z,7.40
2023-04-08T01:31:16.478Z,7.70
2023-04-08T01:31:48.853Z,7.55
2023-04-08T01:32:22.346Z,7.43
2023-04-08T01:32:56.455Z,8.00
2023-04-08T01:33:29.411Z,7.93
2023-04-08T01:34:04.571Z,8.70
2023-04-08T01:34:38.528Z,7.60
2023-04-08T01:35:11.067Z,7.90
2023-04-08T01:35:44.174Z,8.15
2023-04-08T01:36:17.555Z,8.82
2023-04-08T01:36:51.298Z,8.48
2023-04-08T01:37:26.334Z,8.75
2023-04-08T01:37:59.361Z,7.57
2023-04-08T01:38:33.489Z,8.23
2023-04-08T01:39:07.590Z,8.75
2023-04-08T01:39:40.789Z,8.23
2023-04-08T01:40:13.147Z,8.35
2023-04-08T01:40:47.096Z,10.02
2023-04-08T01:41:21.310Z,8.85
2023-04-08T01:41:55.944Z,8.25
2023-04-08T01:42:29.755Z,8.52
2023-04-08T01:43:03.958Z,8.93
2023-04-08T01:43:37.575Z,7.97
2023-04-08T01:44:11.119Z,9.25
2023-04-08T01:44:43.549Z,7.95
2023-04-08T01:45:17.602Z,8.07
2023-04-08T01:45:54.317Z,7.75
2023-04-08T01:46:27.200Z,8.55
2023-04-08T01:47:00.582Z,8.32
2023-04-08T01:47:33.024Z,8.50
2023-04-08T01:48:06.939Z,9.35
2023-04-08T01:48:41.268Z,9.05
2023-04-08T01:49:14.397Z,8.75
2023-04-08T01:49:47.092Z,7.70
2023-04-08T01:50:20.715Z,8.35
2023-04-08T01:50:54.395Z,7.45
2023-04-08T01:51:27.572Z,8.68
2023-04-08T01:52:00.530Z,8.90
2023-04-08T01:52:36.475Z,8.50
2023-04-08T01:53:10.476Z,8.63
2023-04-08T01:53:44.092Z,8.75
2023-04-08T01:54:16.926Z,8.65
2023-04-08T01:54:48.766Z,7.75
2023-04-08T01:55:21.111Z,9.32
2023-04-08T01:55:59.190Z,7.95
2023-04-08T01:56:36.378Z,9.23
2023-04-08T01:57:12.041Z,8.32
2023-04-08T01:57:48.783Z,8.00
2023-04-08T01:58:22.009Z,8.25
2023-04-08T01:58:57.938Z,7.30
2023-04-08T01:59:35.708Z,8.25
2023-04-08T02:00:10.057Z,8.93
2023-04-08T02:00:43.368Z,8.23
2023-04-08T02:01:19.856Z,9.07
2023-04-08T02:01:53.505Z,8.18
2023-04-08T02:02:27.361Z,7.93
2023-04-08T02:03:01.737Z,8.90
2023-04-08T02:03:35.728Z,8.38
2023-04-08T02:04:07.913Z,8.50
2023-04-08T02:04:40.881Z,8.80
2023-04-08T02:05:13.484Z,8.88
2023-04-08T02:05:45.329Z,8.52
2023-04-08T02:06:18.111Z,8.98
2023-04-08T02:06:50.577Z,9.00
2023-04-08T02:07:23.145Z,9.70
2023-04-08T02:07:56.014Z,9.40
2023-04-08T02:08:27.836Z,9.35
2023-04-08T02:09:00.720Z,8.68
2023-04-08T02:09:34.394Z,9.15
2023-04-08T02:10:07.384Z,9.45
2023-04-08T02:10:39.318Z,9.13
2023-04-08T02:11:12.570Z,8.20
2023-04-08T02:11:45.692Z,8.27
2023-04-08T02:12:17.863Z,8.00
2023-04-08T02:12:50.916Z,9.13
2023-04-08T02:13:22.698Z,8.00
2023-04-08T02:13:54.847Z,9.48
2023-04-08T02:14:27.673Z,9.10
2023-04-08T02:14:59.649Z,7.90
2023-04-08T02:15:36.080Z,8.07
2023-04-08T02:16:19.400Z,9.90
2023-04-08T02:16:54.372Z,7.95
2023-04-08T02:17:35.722Z,8.85
2023-04-08T02:18:14.946Z,8.48
2023-04-08T02:18:56.944Z,9.85
2023-04-08T02:19:32.699Z,8.20
2023-04-08T02:20:08.627Z,8.65
2023-04-08T02:20:47.298Z,9.52
2023-04-08T02:21:27.817Z,9.00
2023-04-08T02:22:13.045Z,9.85
2023-04-08T02:22:50.568Z,8.75
2023-04-08T02:23:26.073Z,9.35
2023-04-08T02:24:03.305Z,9.00
2023-04-08T02:24:36.964Z,9.70
2023-04-08T02:25:14.040Z,9.57
2023-04-08T02:25:48.132Z,9.43
2023-04-08T02:26:22.188Z,8.55
2023-04-08T02:26:57.370Z,8.88
2023-04-08T02:27:34.007Z,9.77
2023-04-08T02:28:09.486Z,9.15
2023-04-08T02:28:43.107Z,9.98
2023-04-08T02:29:16.660Z,9.57
2023-04-08T02:29:50.886Z,8.95
2023-04-08T02:30:26.421Z,9.82
2023-04-08T02:31:00.644Z,9.18
2023-04-08T02:31:33.833Z,9.57
2023-04-08T02:32:07.224Z,8.88
2023-04-08T02:32:39.436Z,9.30
2023-04-08T02:33:12.834Z,9.40
2023-04-08T02:33:46.310Z,9.75
2023-04-08T02:34:19.786Z,8.80
2023-04-08T02:34:52.366Z,8.65
2023-04-08T02:35:25.842Z,10.07
2023-04-08T02:35:58.223Z,10.93
2023-04-08T02:36:32.458Z,10.05
2023-04-08T02:37:05.303Z,9.82
2023-04-08T02:37:37.188Z,11.65
2023-04-08T02:38:10.364Z,8.82
2023-04-08T02:38:43.179Z,10.02
2023-04-08T02:39:15.236Z,11.15
2023-04-08T02:39:47.034Z,10.05
2023-04-08T02:40:27.510Z,9.93
2023-04-08T02:40:59.381Z,10.18
2023-04-08T02:41:31.514Z,9.70
2023-04-08T02:42:06.730Z,10.40
2023-04-08T02:42:38.670Z,9.40
2023-04-08T02:43:10.500Z,9.77
2023-04-08T02:43:43.345Z,10.73
2023-04-08T02:44:15.333Z,9.63
2023-04-08T02:44:47.218Z,10.32
2023-04-08T02:45:20.129Z,11.30
2023-04-08T02:45:52.246Z,10.25
2023-04-08T02:46:24.158Z,10.40
2023-04-08T02:46:56.961Z,10.30
2023-04-08T02:47:28.785Z,11.00
2023-04-08T02:48:01.532Z,10.35
2023-04-08T02:48:34.468Z,10.65
2023-04-08T02:49:06.316Z,10.48
2023-04-08T02:49:38.100Z,11.30
2023-04-08T02:50:11.690Z,11.75
2023-04-08T02:50:43.519Z,10.77
2023-04-08T02:51:15.498Z,10.35
2023-04-08T02:51:48.293Z,10.43
2023-04-08T02:52:20.517Z,11.10
2023-04-08T02:52:52.329Z,10.57
2023-04-08T02:53:24.603Z,9.60
2023-04-08T02:53:57.347Z,10.70
2023-04-08T02:54:29.217Z,10.52
2023-04-08T02:55:01.075Z,11.05
2023-04-08T02:55:33.877Z,10.40
2023-04-08T02:56:06.218Z,10.75
2023-04-08T02:56:38.153Z,10.18
2023-04-08T02:57:13.002Z,9.57
2023-04-08T02:57:44.860Z,8.70
2023-04-08T02:58:16.727Z,9.57
2023-04-08T02:58:49.758Z,10.52
2023-04-08T02:59:21.784Z,11.45
2023-04-08T02:59:53.594Z,10.60
2023-04-08T03:00:26.474Z,10.55
2023-04-08T03:00:58.318Z,10.35
2023-04-08T03:01:31.253Z,10.50
2023-04-08T03:02:04.182Z,12.55
2023-04-08T03:02:36.169Z,10.73
2023-04-08T03:03:08.292Z,10.20
2023-04-08T03:03:41.445Z,10.57
2023-04-08T03:04:13.321Z,9.98
2023-04-08T03:04:45.206Z,10.10
2023-04-08T03:05:18.065Z,10.65
2023-04-08T03:05:49.875Z,11.02
2023-04-08T03:06:21.687Z,11.80
2023-04-08T03:06:53.510Z,10.23
2023-04-08T03:07:26.550Z,10.90
2023-04-08T03:07:58.739Z,11.18
2023-04-08T03:08:30.564Z,10.70
2023-04-08T03:09:03.328Z,10.25
2023-04-08T03:09:35.367Z,9.63
2023-04-08T03:10:08.369Z,11.00
2023-04-08T03:10:41.368Z,11.50
2023-04-08T03:11:13.226Z,10.77
2023-04-08T03:11:45.232Z,11.25
2023-04-08T03:12:19.455Z,9.85
2023-04-08T03:12:51.335Z,11.05
2023-04-08T03:13:23.165Z,11.82
2023-04-08T03:13:55.989Z,12.43
2023-04-08T03:14:27.774Z,10.98
2023-04-08T03:15:00.117Z,11.10
2023-04-08T03:15:33.077Z,10.95
2023-04-08T03:16:05.719Z,10.80
2023-04-08T03:16:37.594Z,11.18
2023-04-08T03:17:10.507Z,11.48
2023-04-08T03:17:42.349Z,10.35
2023-04-08T03:18:14.280Z,10.90
2023-04-08T03:18:47.067Z,11.73
2023-04-08T03:19:18.970Z,11.05
2023-04-08T03:19:50.792Z,9.82
2023-04-08T03:20:23.660Z,12.63
2023-04-08T03:20:55.821Z,11.10
2023-04-08T03:21:27.870Z,11.10
2023-04-08T03:22:00.998Z,10.88
2023-04-08T03:22:33.591Z,10.45
2023-04-08T03:23:05.471Z,11.90
2023-04-08T03:23:38.237Z,11.02
2023-04-08T03:24:10.198Z,11.63
2023-04-08T03:24:42.004Z,11.20
2023-04-08T03:25:14.793Z,12.10
2023-04-08T03:25:47.064Z,10.77
2023-04-08T03:26:18.995Z,11.20
2023-04-08T03:26:51.860Z,10.68
2023-04-08T03:27:25.431Z,11.38
2023-04-08T03:27:58.705Z,11.63
2023-04-08T03:28:31.649Z,12.35
2023-04-08T03:29:03.716Z,11.88
2023-04-08T03:29:35.828Z,11.98
2023-04-08T03:30:09.606Z,12.57
2023-04-08T03:30:41.540Z,11.32
2023-04-08T03:31:13.336Z,12.30
2023-04-08T03:31:46.253Z,11.18
2023-04-08T03:32:18.301Z,12.27
2023-04-08T03:32:50.098Z,11.50
2023-04-08T03:33:22.899Z,10.95
2023-04-08T03:33:54.742Z,11.90
2023-04-08T03:34:26.612Z,11.20
2023-04-08T03:34:59.416Z,11.60
2023-04-08T03:35:31.278Z,11.05
2023-04-08T03:36:03.238Z,11.70
2023-04-08T03:36:36.072Z,11.40
2023-04-08T03:37:08.069Z,12.18
2023-04-08T03:37:39.850Z,12.18
2023-04-08T03:38:11.712Z,11.77
2023-04-08T03:38:45.798Z,12.05
2023-04-08T03:39:17.776Z,11.43
2023-04-08T03:39:49.604Z,12.20
2023-04-08T03:40:22.394Z,12.05
2023-04-08T03:40:54.255Z,11.73
2023-04-08T03:41:26.023Z,12.20
2023-04-08T03:42:00.747Z,12.73
2023-04-08T03:42:35.005Z,11.95
2023-04-08T03:43:08.720Z,11.35
2023-04-08T03:43:40.673Z,13.48
2023-04-08T03:44:12.514Z,11.15
2023-04-08T03:44:44.286Z,11.90
2023-04-08T03:45:17.223Z,12.77
2023-04-08T03:45:49.264Z,12.52
2023-04-08T03:46:22.563Z,12.55
2023-04-08T03:46:55.518Z,12.05
2023-04-08T03:47:27.442Z,12.82
2023-04-08T03:47:59.453Z,12.50
2023-04-08T03:48:32.998Z,11.93
2023-04-08T03:49:04.792Z,12.65
2023-04-08T03:49:36.618Z,11.57
2023-04-08T03:50:10.376Z,11.43
2023-04-08T03:50:42.158Z,11.57
2023-04-08T03:51:14.044Z,11.30
2023-04-08T03:51:46.845Z,12.30
2023-04-08T03:52:18.641Z,11.98
2023-04-08T03:52:50.451Z,12.35
2023-04-08T03:53:23.365Z,12.85
2023-04-08T03:53:55.178Z,11.40
2023-04-08T03:54:27.049Z,11.80
2023-04-08T03:54:59.836Z,12.45
2023-04-08T03:55:31.691Z,12.80
2023-04-08T03:56:04.540Z,11.65
2023-04-08T03:56:37.399Z,13.30
2023-04-08T03:57:09.238Z,11.68
2023-04-08T03:57:43.855Z,12.35
2023-04-08T03:58:16.648Z,11.95
2023-04-08T03:58:48.610Z,12.52
2023-04-08T03:59:20.535Z,11.48
2023-04-08T03:59:53.321Z,11.75
2023-04-08T04:00:25.405Z,12.63
2023-04-08T04:00:57.315Z,12.90
2023-04-08T04:01:30.708Z,12.77
2023-04-08T04:02:02.571Z,13.27
2023-04-08T04:02:34.575Z,11.85
2023-04-08T04:03:07.565Z,13.02
2023-04-08T04:03:39.839Z,13.13
2023-04-08T04:04:11.892Z,12.35
2023-04-08T04:04:43.940Z,12.50
2023-04-08T04:05:16.879Z,12.73
2023-04-08T04:05:48.749Z,15.07
2023-04-08T04:06:21.011Z,12.40
2023-04-08T04:06:53.797Z,13.25
2023-04-08T04:07:25.559Z,12.98
2023-04-08T04:07:58.392Z,13.00
2023-04-08T04:08:31.222Z,11.80
2023-04-08T04:09:03.263Z,12.35
2023-04-08T04:09:35.410Z,13.65
2023-04-08T04:10:10.266Z,13.05
2023-04-08T04:10:42.117Z,13.48
2023-04-08T04:11:13.943Z,12.90
2023-04-08T04:11:46.725Z,12.13
2023-04-08T04:12:18.525Z,11.65
2023-04-08T04:12:51.755Z,13.57
2023-04-08T04:13:24.520Z,12.60
2023-04-08T04:13:56.427Z,11.70
2023-04-08T04:14:28.245Z,12.05
2023-04-08T04:15:01.029Z,12.73
2023-04-08T04:15:33.133Z,12.93
2023-04-08T04:16:05.462Z,13.60
2023-04-08T04:16:38.305Z,12.00
2023-04-08T04:17:10.100Z,13.52
2023-04-08T04:17:41.950Z,13.07
2023-04-08T04:18:13.837Z,12.95
2023-04-08T04:18:46.621Z,12.95
2023-04-08T04:19:18.619Z,13.48
2023-04-08T04:19:50.439Z,13.93
2023-04-08T04:20:23.243Z,14.60
2023-04-08T04:20:55.095Z,13.52
2023-04-08T04:21:27.164Z,13.32
2023-04-08T04:21:59.962Z,13.52
2023-04-08T04:22:31.772Z,13.73
2023-04-08T04:23:03.578Z,11.70
2023-04-08T04:23:36.366Z,10.98
2023-04-08T04:24:08.180Z,13.70
2023-04-08T04:24:39.971Z,14.00
2023-04-08T04:25:12.766Z,13.38
2023-04-08T04:25:44.609Z,12.43
2023-04-08T04:26:16.406Z,13.15
2023-04-08T04:26:49.170Z,13.70
2023-04-08T04:27:20.994Z,12.70
2023-04-08T04:27:54.268Z,12.90
2023-04-08T04:28:27.053Z,13.45
2023-04-08T04:28:58.854Z,13.38
2023-04-08T04:29:31.653Z,13.55
2023-04-08T04:30:05.574Z,12.43
2023-04-08T04:30:37.779Z,12.85
2023-04-08T04:31:18.532Z,13.23
2023-04-08T04:31:51.352Z,13.35
2023-04-08T04:32:23.286Z,13.45
2023-04-08T04:32:56.266Z,14.30
2023-04-08T04:33:29.073Z,12.75
2023-04-08T04:34:00.873Z,13.68
2023-04-08T04:34:32.688Z,13.35
2023-04-08T04:35:06.157Z,13.32
2023-04-08T04:35:39.557Z,13.57
2023-04-08T04:36:11.369Z,13.50
2023-04-08T04:36:44.753Z,13.45
2023-04-08T04:37:17.076Z,12.57
2023-04-08T04:37:50.152Z,13.15
2023-04-08T04:38:22.045Z,15.05
2023-04-08T04:38:55.051Z,13.27
2023-04-08T04:39:27.123Z,14.05
2023-04-08T04:39:58.924Z,13.45
2023-04-08T04:40:31.736Z,12.95
2023-04-08T04:41:03.582Z,13.38
2023-04-08T04:41:38.850Z,14.15
2023-04-08T04:42:11.675Z,13.27
2023-04-08T04:42:43.559Z,12.75
2023-04-08T04:43:16.739Z,13.85
2023-04-08T04:43:49.506Z,13.40
2023-04-08T04:44:21.347Z,13.63
2023-04-08T04:44:54.365Z,14.70
2023-04-08T04:45:27.091Z,13.73
2023-04-08T04:45:59.248Z,13.48
2023-04-08T04:46:31.178Z,13.85
2023-04-08T04:47:04.119Z,14.82
2023-04-08T04:47:36.069Z,13.20
2023-04-08T04:48:08.123Z,15.00
2023-04-08T04:48:40.909Z,12.68
2023-04-08T04:49:12.770Z,14.55
2023-04-08T04:49:45.591Z,16.63
2023-04-08T04:50:18.497Z,13.80
2023-04-08T04:50:55.352Z,15.65
2023-04-08T04:51:27.270Z,14.25
2023-04-08T04:52:00.154Z,15.52
2023-04-08T04:52:31.999Z,14.73
2023-04-08T04:53:04.013Z,14.55
2023-04-08T04:53:36.810Z,14.68
2023-04-08T04:54:08.845Z,13.93
2023-04-08T04:54:40.764Z,13.55
2023-04-08T04:55:15.657Z,13.77
2023-04-08T04:55:47.485Z,15.02
2023-04-08T04:56:19.302Z,13.80
2023-04-08T04:56:52.077Z,14.13
2023-04-08T04:57:24.003Z,13.23
2023-04-08T04:57:55.930Z,14.18
2023-04-08T04:58:30.964Z,15.60
2023-04-08T04:59:02.875Z,15.25
2023-04-08T04:59:34.669Z,14.68
2023-04-08T05:00:09.470Z,14.80
2023-04-08T05:00:41.326Z,13.60
2023-04-08T05:01:13.287Z,14.90
2023-04-08T05:01:46.480Z,14.95
2023-04-08T05:02:18.499Z,14.70
2023-04-08T05:02:50.744Z,14.00
2023-04-08T05:03:23.728Z,15.38
2023-04-08T05:03:55.617Z,13.85
2023-04-08T05:04:27.460Z,14.07
2023-04-08T05:05:00.521Z,16.85
2023-04-08T05:05:32.444Z,14.50
2023-04-08T05:06:04.508Z,14.80
2023-04-08T05:06:37.303Z,14.65
2023-04-08T05:07:09.153Z,14.55
2023-04-08T05:07:41.055Z,15.35
2023-04-08T05:08:13.824Z,15.05
2023-04-08T05:08:45.726Z,15.00
2023-04-08T05:09:17.700Z,15.48
2023-04-08T05:09:50.517Z,15.68
2023-04-08T05:10:22.575Z,14.40
2023-04-08T05:10:55.970Z,15.50
2023-04-08T05:11:28.748Z,16.63
2023-04-08T05:12:00.805Z,15.02
2023-04-08T05:12:32.698Z,16.90
2023-04-08T05:13:05.624Z,15.20
2023-04-08T05:13:38.893Z,15.65
2023-04-08T05:14:10.792Z,15.05
2023-04-08T05:14:43.547Z,15.30
2023-04-08T05:15:15.654Z,16.15
2023-04-08T05:15:47.560Z,15.43
2023-04-08T05:16:20.439Z,15.27
2023-04-08T05:16:52.321Z,15.80
2023-04-08T05:17:25.345Z,15.50
2023-04-08T05:17:57.286Z,16.13
2023-04-08T05:18:29.101Z,16.17
2023-04-08T05:19:01.995Z,15.00
2023-04-08T05:19:33.799Z,15.85
2023-04-08T05:20:06.766Z,16.80
2023-04-08T05:20:39.636Z,15.95
2023-04-08T05:21:11.468Z,17.17
2023-04-08T05:21:43.286Z,14.60
2023-04-08T05:22:16.071Z,15.05
2023-04-08T05:22:47.869Z,15.75
2023-04-08T05:23:20.784Z,15.18
2023-04-08T05:23:53.739Z,16.40
2023-04-08T05:24:25.611Z,15.93
2023-04-08T05:24:58.408Z,15.98
2023-04-08T05:25:30.474Z,15.35
2023-04-08T05:26:02.359Z,15.27
2023-04-08T05:26:35.399Z,15.30
2023-04-08T05:27:07.222Z,15.15
2023-04-08T05:27:40.395Z,15.90
2023-04-08T05:28:13.282Z,16.40
2023-04-08T05:28:46.480Z,15.80
2023-04-08T05:29:18.601Z,16.25
2023-04-08T05:29:51.545Z,16.17
2023-04-08T05:30:23.515Z,15.65
2023-04-08T05:30:56.442Z,16.80
2023-04-08T05:31:28.906Z,16.10
2023-04-08T05:32:00.967Z,18.00
2023-04-08T05:32:33.904Z,17.80
2023-04-08T05:33:06.511Z,16.70
2023-04-08T05:33:39.317Z,16.75
2023-04-08T05:34:11.361Z,16.75
2023-04-08T05:34:43.468Z,16.95
2023-04-08T05:35:16.437Z,16.35
2023-04-08T05:35:48.430Z,16.48
2023-04-08T05:36:21.378Z,16.98
2023-04-08T05:36:53.315Z,16.40
2023-04-08T05:37:25.204Z,17.65
2023-04-08T05:37:57.978Z,15.80
2023-04-08T05:38:29.846Z,15.73
2023-04-08T05:39:02.878Z,16.67
2023-04-08T05:39:36.526Z,16.73
2023-04-08T05:40:09.377Z,16.45
2023-04-08T05:40:42.219Z,17.10
2023-04-08T05:41:14.067Z,17.85
2023-04-08T05:41:46.299Z,17.25
2023-04-08T05:42:19.065Z,17.25
2023-04-08T05:42:50.891Z,16.48
2023-04-08T05:43:22.813Z,17.58
2023-04-08T05:43:56.916Z,17.33
2023-04-08T05:44:28.822Z,18.88
2023-04-08T05:45:00.973Z,17.05
2023-04-08T05:45:33.735Z,17.13
2023-04-08T05:46:09.071Z,16.88
2023-04-08T05:46:40.879Z,18.33
2023-04-08T05:47:14.705Z,16.75
2023-04-08T05:47:46.624Z,17.63
2023-04-08T05:48:18.509Z,16.73
2023-04-08T05:48:51.538Z,18.45
2023-04-08T05:49:23.623Z,16.90
2023-04-08T05:49:55.442Z,19.02
2023-04-08T05:50:28.234Z,17.80
2023-04-08T05:51:00.138Z,17.00
2023-04-08T05:51:32.046Z,16.73
2023-04-08T05:52:04.950Z,17.63
2023-04-08T05:52:36.958Z,17.55
2023-04-08T05:53:09.685Z,17.63
2023-04-08T05:53:42.667Z,20.05
2023-04-08T05:54:14.488Z,18.00
2023-04-08T05:54:46.513Z,16.80
2023-04-08T05:55:19.308Z,18.35
2023-04-08T05:55:51.237Z,19.88
2023-04-08T05:56:23.048Z,17.88
2023-04-08T05:56:55.821Z,18.98
2023-04-08T05:57:27.643Z,18.25
2023-04-08T05:57:59.494Z,18.27
2023-04-08T05:58:32.218Z,19.23
2023-04-08T05:59:05.448Z,17.30
2023-04-08T05:59:37.304Z,18.10
2023-04-08T06:00:11.433Z,17.23
2023-04-08T06:00:43.281Z,18.40
2023-04-08T06:01:16.076Z,16.27
2023-04-08T06:01:47.943Z,17.05
2023-04-08T06:02:19.925Z,19.50
2023-04-08T06:02:52.982Z,16.85
2023-04-08T06:03:25.408Z,16.55
2023-04-08T06:03:57.562Z,17.08
2023-04-08T06:04:30.664Z,17.60
2023-04-08T06:05:03.750Z,17.90
2023-04-08T06:05:36.730Z,19.05
2023-04-08T06:06:10.218Z,17.55
2023-04-08T06:06:43.011Z,17.35
2023-04-08T06:07:14.802Z,17.48
2023-04-08T06:07:46.624Z,17.42
2023-04-08T06:08:19.539Z,16.85
2023-04-08T06:08:51.850Z,17.25
2023-04-08T06:09:24.055Z,17.73
2023-04-08T06:09:57.056Z,17.48
2023-04-08T06:10:28.919Z,17.73
2023-04-08T06:11:01.647Z,18.85
2023-04-08T06:11:33.481Z,17.80
2023-04-08T06:12:05.653Z,17.80
2023-04-08T06:12:39.430Z,20.55
2023-04-08T06:13:11.249Z,20.50
2023-04-08T06:13:43.029Z,18.13
2023-04-08T06:14:17.200Z,18.20
2023-04-08T06:14:53.360Z,19.10
2023-04-08T06:15:26.162Z,18.90
2023-04-08T06:15:59.115Z,16.38
2023-04-08T06:16:30.984Z,18.80
2023-04-08T06:17:02.832Z,17.77
2023-04-08T06:17:37.393Z,17.50
2023-04-08T06:18:09.535Z,16.60
2023-04-08T06:18:41.547Z,16.77
2023-04-08T06:19:14.317Z,16.92
2023-04-08T06:19:46.128Z,15.93
2023-04-08T06:20:18.010Z,18.73
2023-04-08T06:20:50.950Z,17.55
2023-04-08T06:21:22.992Z,15.85
2023-04-08T06:21:58.782Z,16.48
2023-04-08T06:22:31.726Z,18.05
2023-04-08T06:23:03.543Z,17.55
2023-04-08T06:23:35.379Z,15.95
2023-04-08T06:24:08.359Z,16.60
2023-04-08T06:24:40.183Z,16.90
2023-04-08T06:25:12.306Z,17.30
2023-04-08T06:25:45.160Z,17.73
2023-04-08T06:26:16.954Z,16.23
2023-04-08T06:26:49.124Z,16.50
2023-04-08T06:27:21.979Z,17.58
2023-04-08T06:27:53.770Z,16.10
2023-04-08T06:28:25.637Z,16.10
2023-04-08T06:28:58.485Z,17.70
2023-04-08T06:29:31.699Z,17.48
2023-04-08T06:30:03.888Z,15.52
2023-04-08T06:30:36.770Z,17.38
2023-04-08T06:31:08.701Z,17.40
2023-04-08T06:31:40.527Z,15.68
2023-04-08T06:32:13.314Z,16.88
2023-04-08T06:32:47.188Z,17.77
2023-04-08T06:33:19.307Z,17.02
2023-04-08T06:33:52.359Z,17.33
2023-04-08T06:34:24.238Z,16.90
2023-04-08T06:34:56.190Z,16.80
2023-04-08T06:35:28.425Z,17.27
2023-04-08T06:36:04.897Z,15.45
2023-04-08T06:36:36.826Z,16.45
2023-04-08T06:37:08.712Z,15.60
2023-04-08T06:37:41.472Z,16.80
2023-04-08T06:38:13.548Z,19.25
2023-04-08T06:38:46.406Z,16.08
2023-04-08T06:39:19.356Z,15.98
2023-04-08T06:39:51.462Z,17.48
2023-04-08T06:40:24.230Z,16.77
2023-04-08T06:40:56.435Z,16.00
2023-04-08T06:41:28.257Z,16.52
2023-04-08T06:42:01.440Z,15.88
2023-04-08T06:42:33.468Z,16.42
2023-04-08T06:43:07.148Z,16.65
2023-04-08T06:43:39.926Z,16.83
2023-04-08T06:44:11.726Z,18.27
2023-04-08T06:44:44.873Z,18.70
2023-04-08T06:45:17.606Z,16.20
2023-04-08T06:45:50.195Z,16.13
2023-04-08T06:46:22.191Z,17.50
2023-04-08T06:46:55.872Z,16.92
2023-04-08T06:47:27.966Z,16.13
2023-04-08T06:47:59.895Z,16.55
2023-04-08T06:48:32.817Z,16.40
2023-04-08T06:49:06.756Z,17.33
2023-04-08T06:49:38.531Z,16.10
2023-04-08T06:50:11.906Z,17.63
2023-04-08T06:50:44.084Z,17.55
2023-04-08T06:51:16.894Z,18.20
2023-04-08T06:51:49.005Z,17.70
2023-04-08T06:52:21.171Z,16.17
2023-04-08T06:52:55.130Z,16.67
2023-04-08T06:53:29.199Z,17.00
2023-04-08T06:54:01.228Z,16.42
2023-04-08T06:54:34.031Z,18.48
2023-04-08T06:55:06.599Z,17.38
2023-04-08T06:55:38.801Z,17.88
2023-04-08T06:56:12.149Z,16.30
2023-04-08T06:56:43.975Z,17.58
2023-04-08T06:57:15.819Z,17.27
2023-04-08T06:57:48.612Z,16.05
2023-04-08T06:58:20.517Z,17.42
2023-04-08T06:58:53.363Z,18.65
2023-04-08T06:59:25.231Z,17.08
2023-04-08T07:00:00.437Z,17.05
2023-04-08T07:00:33.976Z,18.05
2023-04-08T07:01:06.061Z,18.42
2023-04-08T07:01:38.018Z,18.38
2023-04-08T07:02:11.083Z,17.63
2023-04-08T07:02:43.004Z,18.13
2023-04-08T07:03:14.963Z,17.50
2023-04-08T07:03:47.831Z,19.67
2023-04-08T07:04:19.885Z,16.95
2023-04-08T07:04:52.690Z,18.13
2023-04-08T07:05:24.723Z,18.23
2023-04-08T07:05:56.572Z,20.02
2023-04-08T07:06:29.377Z,18.92
2023-04-08T07:07:01.284Z,18.83
2023-04-08T07:07:34.088Z,17.13
2023-04-08T07:08:06.266Z,17.67
2023-04-08T07:08:38.634Z,16.55
2023-04-08T07:09:12.071Z,16.55
2023-04-08T07:09:45.885Z,16.55